sensor_id;sensor_type;location;lat;lon;timestamp;temperature;humidity
9537;DHT22;4807;48.024;11.726;2023-01-29T00:00:10;-0.80;99.90
9537;DHT22;4807;48.024;11.726;2023-01-29T00:04:06;-0.30;99.90
9537;DHT22;4807;48.024;11.726;2023-01-29T00:08:14;-0.30;99.90
9537;DHT22;4807;48.024;11.726;2023-01-29T00:12:20;-0.30;99.90
9537;DHT22;4807;48.024;11.726;2023-01-29T00:16:20;-0.30;99.90
9537;DHT22;4807;48.024;11.726;2023-01-29T00:20:15;-0.10;99.90
9537;DHT22;4807;48.024;11.726;2023-01-29T00:23:43;-0.30;99.90
9537;DHT22;4807;48.024;11.726;2023-01-29T00:27:32;1.90;99.90
9537;DHT22;4807;48.024;11.726;2023-01-29T00:31:38;-1.90;99.90
9537;DHT22;4807;48.024;11.726;2023-01-29T00:35:21;-0.40;99.90
9537;DHT22;4807;48.024;11.726;2023-01-29T00:43:25;-0.50;99.90
9537;DHT22;4807;48.024;11.726;2023-01-29T00:47:39;0.30;99.90
9537;DHT22;4807;48.024;11.726;2023-01-29T00:52:04;1.70;99.90
9537;DHT22;4807;48.024;11.726;2023-01-29T00:55:53;0.00;99.90
9537;DHT22;4807;48.024;11.726;2023-01-29T00:59:43;0.50;99.90
9537;DHT22;4807;48.024;11.726;2023-01-29T01:03:36;-0.40;99.90
9537;DHT22;4807;48.024;11.726;2023-01-29T01:08:00;-0.20;99.90
9537;DHT22;4807;48.024;11.726;2023-01-29T01:12:04;-1.50;99.90
9537;DHT22;4807;48.024;11.726;2023-01-29T01:16:19;0.80;99.90
9537;DHT22;4807;48.024;11.726;2023-01-29T01:25:16;3.10;99.90
9537;DHT22;4807;48.024;11.726;2023-01-29T01:28:56;1.30;99.90
9537;DHT22;4807;48.024;11.726;2023-01-29T01:32:49;-0.40;99.90
9537;DHT22;4807;48.024;11.726;2023-01-29T01:36:33;1.00;99.90
9537;DHT22;4807;48.024;11.726;2023-01-29T01:44:56;-0.40;99.90
9537;DHT22;4807;48.024;11.726;2023-01-29T01:48:39;-0.40;99.90
9537;DHT22;4807;48.024;11.726;2023-01-29T01:56:51;1.70;99.90
9537;DHT22;4807;48.024;11.726;2023-01-29T02:00:32;-0.40;99.90
9537;DHT22;4807;48.024;11.726;2023-01-29T02:04:22;2.50;99.90
9537;DHT22;4807;48.024;11.726;2023-01-29T02:12:46;1.70;99.90
9537;DHT22;4807;48.024;11.726;2023-01-29T02:16:15;0.00;99.90
9537;DHT22;4807;48.024;11.726;2023-01-29T02:30:00;-0.30;99.90
9537;DHT22;4807;48.024;11.726;2023-01-29T02:33:56;-0.30;99.90
9537;DHT22;4807;48.024;11.726;2023-01-29T02:38:33;2.40;99.90
9537;DHT22;4807;48.024;11.726;2023-01-29T02:42:40;-0.40;99.90
9537;DHT22;4807;48.024;11.726;2023-01-29T02:47:07;-0.50;99.90
9537;DHT22;4807;48.024;11.726;2023-01-29T02:52:01;-2.40;99.90
9537;DHT22;4807;48.024;11.726;2023-01-29T02:55:46;1.80;99.90
9537;DHT22;4807;48.024;11.726;2023-01-29T03:04:23;1.30;99.90
9537;DHT22;4807;48.024;11.726;2023-01-29T03:08:07;-0.30;99.90
9537;DHT22;4807;48.024;11.726;2023-01-29T03:11:56;2.10;99.90
9537;DHT22;4807;48.024;11.726;2023-01-29T03:15:40;-0.30;99.90
9537;DHT22;4807;48.024;11.726;2023-01-29T03:19:34;1.40;99.90
9537;DHT22;4807;48.024;11.726;2023-01-29T03:23:09;-0.40;99.90
9537;DHT22;4807;48.024;11.726;2023-01-29T03:27:25;-1.60;99.90
9537;DHT22;4807;48.024;11.726;2023-01-29T03:31:40;-0.50;99.90
9537;DHT22;4807;48.024;11.726;2023-01-29T03:35:26;-0.40;99.90
9537;DHT22;4807;48.024;11.726;2023-01-29T03:39:43;-0.60;99.90
9537;DHT22;4807;48.024;11.726;2023-01-29T03:43:46;-0.40;99.90
9537;DHT22;4807;48.024;11.726;2023-01-29T03:47:35;-0.60;99.90
9537;DHT22;4807;48.024;11.726;2023-01-29T03:51:26;0.80;99.90
9537;DHT22;4807;48.024;11.726;2023-01-29T03:55:29;-0.50;99.90
9537;DHT22;4807;48.024;11.726;2023-01-29T03:59:03;-0.50;99.90
9537;DHT22;4807;48.024;11.726;2023-01-29T04:03:32;1.10;99.90
9537;DHT22;4807;48.024;11.726;2023-01-29T04:07:11;0.10;99.90
9537;DHT22;4807;48.024;11.726;2023-01-29T04:11:11;-0.50;99.90
9537;DHT22;4807;48.024;11.726;2023-01-29T04:15:29;0.30;99.90
9537;DHT22;4807;48.024;11.726;2023-01-29T04:19:12;-2.20;99.90
9537;DHT22;4807;48.024;11.726;2023-01-29T04:31:31;1.00;99.90
9537;DHT22;4807;48.024;11.726;2023-01-29T04:35:16;-0.70;99.90
9537;DHT22;4807;48.024;11.726;2023-01-29T04:39:42;0.00;99.90
9537;DHT22;4807;48.024;11.726;2023-01-29T04:43:50;0.90;99.90
9537;DHT22;4807;48.024;11.726;2023-01-29T04:48:06;-0.90;99.90
9537;DHT22;4807;48.024;11.726;2023-01-29T04:52:44;-2.30;99.90
9537;DHT22;4807;48.024;11.726;2023-01-29T05:02:07;-0.80;99.90
9537;DHT22;4807;48.024;11.726;2023-01-29T05:11:58;-0.80;99.90
9537;DHT22;4807;48.024;11.726;2023-01-29T05:16:52;-1.30;99.90
9537;DHT22;4807;48.024;11.726;2023-01-29T05:30:36;-0.80;99.90
9537;DHT22;4807;48.024;11.726;2023-01-29T05:40:10;-0.70;99.90
9537;DHT22;4807;48.024;11.726;2023-01-29T05:44:43;-0.50;99.90
9537;DHT22;4807;48.024;11.726;2023-01-29T05:48:59;-0.60;99.90
9537;DHT22;4807;48.024;11.726;2023-01-29T05:55:26;-2.50;99.90
9537;DHT22;4807;48.024;11.726;2023-01-29T05:58:50;1.00;99.90
9537;DHT22;4807;48.024;11.726;2023-01-29T06:03:01;-0.60;99.90
9537;DHT22;4807;48.024;11.726;2023-01-29T06:12:04;-0.70;99.90
9537;DHT22;4807;48.024;11.726;2023-01-29T06:16:45;-0.60;99.90
9537;DHT22;4807;48.024;11.726;2023-01-29T06:21:43;-0.60;99.90
9537;DHT22;4807;48.024;11.726;2023-01-29T06:26:51;-0.50;99.90
9537;DHT22;4807;48.024;11.726;2023-01-29T07:06:38;-1.30;99.90
9537;DHT22;4807;48.024;11.726;2023-01-29T07:47:38;-1.00;99.90
9537;DHT22;4807;48.024;11.726;2023-01-29T07:52:41;0.20;99.90
9537;DHT22;4807;48.024;11.726;2023-01-29T09:18:03;1.30;97.90
9537;DHT22;4807;48.024;11.726;2023-01-29T09:28:11;0.90;98.00
9537;DHT22;4807;48.024;11.726;2023-01-29T10:52:41;2.80;97.80
9537;DHT22;4807;48.024;11.726;2023-01-29T10:56:28;3.10;97.90
9537;DHT22;4807;48.024;11.726;2023-01-29T10:59:59;2.70;97.30
9537;DHT22;4807;48.024;11.726;2023-01-29T11:03:20;2.80;97.70
9537;DHT22;4807;48.024;11.726;2023-01-29T11:06:35;2.80;97.30
9537;DHT22;4807;48.024;11.726;2023-01-29T11:09:50;2.80;97.40
9537;DHT22;4807;48.024;11.726;2023-01-29T11:13:03;2.80;96.80
9537;DHT22;4807;48.024;11.726;2023-01-29T11:16:12;2.50;96.90
9537;DHT22;4807;48.024;11.726;2023-01-29T11:19:36;2.40;97.40
9537;DHT22;4807;48.024;11.726;2023-01-29T11:22:52;2.20;97.80
9537;DHT22;4807;48.024;11.726;2023-01-29T11:26:02;2.10;97.10
9537;DHT22;4807;48.024;11.726;2023-01-29T11:29:33;2.10;98.10
9537;DHT22;4807;48.024;11.726;2023-01-29T11:32:49;2.30;98.20
9537;DHT22;4807;48.024;11.726;2023-01-29T11:36:19;2.30;97.50
9537;DHT22;4807;48.024;11.726;2023-01-29T11:39:43;2.30;97.70
9537;DHT22;4807;48.024;11.726;2023-01-29T11:42:53;2.20;97.70
9537;DHT22;4807;48.024;11.726;2023-01-29T11:46:02;2.20;97.70
9537;DHT22;4807;48.024;11.726;2023-01-29T11:49:22;2.10;98.10
9537;DHT22;4807;48.024;11.726;2023-01-29T11:52:39;2.10;97.50
9537;DHT22;4807;48.024;11.726;2023-01-29T11:55:50;1.70;97.60
9537;DHT22;4807;48.024;11.726;2023-01-29T11:58:59;1.40;98.40
9537;DHT22;4807;48.024;11.726;2023-01-29T12:02:18;1.60;98.80
9537;DHT22;4807;48.024;11.726;2023-01-29T12:05:32;1.50;98.20
9537;DHT22;4807;48.024;11.726;2023-01-29T12:08:43;1.90;98.50
9537;DHT22;4807;48.024;11.726;2023-01-29T12:11:51;1.90;98.80
9537;DHT22;4807;48.024;11.726;2023-01-29T12:15:16;2.10;98.60
9537;DHT22;4807;48.024;11.726;2023-01-29T12:18:29;2.60;97.90
9537;DHT22;4807;48.024;11.726;2023-01-29T12:21:46;2.60;98.10
9537;DHT22;4807;48.024;11.726;2023-01-29T12:25:06;2.70;97.70
9537;DHT22;4807;48.024;11.726;2023-01-29T12:28:32;2.90;97.30
9537;DHT22;4807;48.024;11.726;2023-01-29T12:31:51;2.90;97.60
9537;DHT22;4807;48.024;11.726;2023-01-29T12:35:11;2.80;96.90
9537;DHT22;4807;48.024;11.726;2023-01-29T12:38:26;2.70;96.90
9537;DHT22;4807;48.024;11.726;2023-01-29T12:41:42;2.70;97.30
9537;DHT22;4807;48.024;11.726;2023-01-29T12:44:57;2.80;96.80
9537;DHT22;4807;48.024;11.726;2023-01-29T12:48:12;2.80;97.10
9537;DHT22;4807;48.024;11.726;2023-01-29T12:51:30;2.90;96.80
9537;DHT22;4807;48.024;11.726;2023-01-29T12:54:49;2.90;96.40
9537;DHT22;4807;48.024;11.726;2023-01-29T12:58:04;2.70;96.80
9537;DHT22;4807;48.024;11.726;2023-01-29T13:01:24;2.50;96.80
9537;DHT22;4807;48.024;11.726;2023-01-29T13:04:40;2.40;96.90
9537;DHT22;4807;48.024;11.726;2023-01-29T13:07:59;2.40;97.40
9537;DHT22;4807;48.024;11.726;2023-01-29T13:11:15;2.50;97.80
9537;DHT22;4807;48.024;11.726;2023-01-29T13:14:40;2.60;97.30
9537;DHT22;4807;48.024;11.726;2023-01-29T13:17:55;2.50;97.00
9537;DHT22;4807;48.024;11.726;2023-01-29T13:21:11;2.50;97.50
9537;DHT22;4807;48.024;11.726;2023-01-29T13:24:23;2.50;97.40
9537;DHT22;4807;48.024;11.726;2023-01-29T13:27:35;2.40;97.50
9537;DHT22;4807;48.024;11.726;2023-01-29T13:30:45;2.40;97.50
9537;DHT22;4807;48.024;11.726;2023-01-29T13:34:00;2.30;98.20
9537;DHT22;4807;48.024;11.726;2023-01-29T13:37:18;2.30;98.00
9537;DHT22;4807;48.024;11.726;2023-01-29T13:40:33;2.20;98.20
9537;DHT22;4807;48.024;11.726;2023-01-29T13:43:47;2.20;98.50
9537;DHT22;4807;48.024;11.726;2023-01-29T13:47:00;2.20;98.30
9537;DHT22;4807;48.024;11.726;2023-01-29T13:50:18;2.20;98.90
9537;DHT22;4807;48.024;11.726;2023-01-29T13:53:35;2.00;98.30
9537;DHT22;4807;48.024;11.726;2023-01-29T13:56:56;2.00;99.10
9537;DHT22;4807;48.024;11.726;2023-01-29T14:04:14;1.60;99.20
9537;DHT22;4807;48.024;11.726;2023-01-29T14:07:47;1.30;99.90
9537;DHT22;4807;48.024;11.726;2023-01-29T14:11:32;1.20;99.60
9537;DHT22;4807;48.024;11.726;2023-01-29T14:15:00;1.20;98.90
9537;DHT22;4807;48.024;11.726;2023-01-29T14:18:19;1.10;98.80
9537;DHT22;4807;48.024;11.726;2023-01-29T14:21:31;1.00;99.30
9537;DHT22;4807;48.024;11.726;2023-01-29T14:24:42;0.80;99.40
9537;DHT22;4807;48.024;11.726;2023-01-29T14:27:51;0.50;99.80
9537;DHT22;4807;48.024;11.726;2023-01-29T14:31:00;0.40;99.90
9537;DHT22;4807;48.024;11.726;2023-01-29T14:34:19;0.60;99.90
9537;DHT22;4807;48.024;11.726;2023-01-29T14:37:34;0.80;99.90
9537;DHT22;4807;48.024;11.726;2023-01-29T14:40:46;0.80;99.80
9537;DHT22;4807;48.024;11.726;2023-01-29T14:48:37;0.40;99.90
9537;DHT22;4807;48.024;11.726;2023-01-29T14:51:53;0.50;99.90
9537;DHT22;4807;48.024;11.726;2023-01-29T14:55:14;0.70;99.90
9537;DHT22;4807;48.024;11.726;2023-01-29T14:58:36;1.00;99.90
9537;DHT22;4807;48.024;11.726;2023-01-29T15:01:52;1.10;99.90
9537;DHT22;4807;48.024;11.726;2023-01-29T15:05:06;1.20;99.90
9537;DHT22;4807;48.024;11.726;2023-01-29T15:08:22;1.10;99.90
9537;DHT22;4807;48.024;11.726;2023-01-29T15:11:47;0.90;99.90
9537;DHT22;4807;48.024;11.726;2023-01-29T15:15:06;0.80;99.90
9537;DHT22;4807;48.024;11.726;2023-01-29T15:18:27;0.50;99.90
9537;DHT22;4807;48.024;11.726;2023-01-29T15:22:01;0.50;99.90
9537;DHT22;4807;48.024;11.726;2023-01-29T15:25:20;0.10;99.90
9537;DHT22;4807;48.024;11.726;2023-01-29T15:28:31;-0.20;99.90
9537;DHT22;4807;48.024;11.726;2023-01-29T15:31:41;-0.20;99.90
9537;DHT22;4807;48.024;11.726;2023-01-29T15:34:54;-0.30;99.90
9537;DHT22;4807;48.024;11.726;2023-01-29T15:38:06;-0.30;99.90
9537;DHT22;4807;48.024;11.726;2023-01-29T15:41:23;-0.30;99.90
9537;DHT22;4807;48.024;11.726;2023-01-29T15:44:33;-0.40;99.90
9537;DHT22;4807;48.024;11.726;2023-01-29T15:47:42;-0.40;99.90
9537;DHT22;4807;48.024;11.726;2023-01-29T15:50:53;-0.50;99.90
9537;DHT22;4807;48.024;11.726;2023-01-29T15:54:05;-0.50;99.90
9537;DHT22;4807;48.024;11.726;2023-01-29T15:57:23;-0.60;99.90
9537;DHT22;4807;48.024;11.726;2023-01-29T16:00:38;-0.60;99.90
9537;DHT22;4807;48.024;11.726;2023-01-29T16:03:49;-0.70;99.90
9537;DHT22;4807;48.024;11.726;2023-01-29T16:06:59;-0.70;99.90
9537;DHT22;4807;48.024;11.726;2023-01-29T16:10:15;-0.70;99.90
9537;DHT22;4807;48.024;11.726;2023-01-29T16:13:27;-0.80;99.90
9537;DHT22;4807;48.024;11.726;2023-01-29T16:16:38;-0.80;99.90
9537;DHT22;4807;48.024;11.726;2023-01-29T16:19:57;-0.80;99.90
9537;DHT22;4807;48.024;11.726;2023-01-29T16:23:15;-0.70;99.90
9537;DHT22;4807;48.024;11.726;2023-01-29T16:26:27;-0.70;99.90
9537;DHT22;4807;48.024;11.726;2023-01-29T16:29:40;-0.70;99.90
9537;DHT22;4807;48.024;11.726;2023-01-29T16:32:49;-0.70;99.90
9537;DHT22;4807;48.024;11.726;2023-01-29T16:36:01;-0.70;99.90
9537;DHT22;4807;48.024;11.726;2023-01-29T16:39:16;-0.70;99.90
9537;DHT22;4807;48.024;11.726;2023-01-29T16:42:28;-0.70;99.90
9537;DHT22;4807;48.024;11.726;2023-01-29T16:45:37;-0.70;99.90
9537;DHT22;4807;48.024;11.726;2023-01-29T16:48:46;-0.70;99.90
9537;DHT22;4807;48.024;11.726;2023-01-29T16:51:54;-0.70;99.90
9537;DHT22;4807;48.024;11.726;2023-01-29T16:55:18;-0.70;99.90
9537;DHT22;4807;48.024;11.726;2023-01-29T16:58:28;-0.60;99.90
9537;DHT22;4807;48.024;11.726;2023-01-29T17:01:37;-0.60;99.90
9537;DHT22;4807;48.024;11.726;2023-01-29T17:04:47;-0.60;99.90
9537;DHT22;4807;48.024;11.726;2023-01-29T17:07:55;-0.60;99.90
9537;DHT22;4807;48.024;11.726;2023-01-29T17:11:05;-0.60;99.90
9537;DHT22;4807;48.024;11.726;2023-01-29T17:14:17;-0.70;99.90
9537;DHT22;4807;48.024;11.726;2023-01-29T17:17:31;-0.70;99.90
9537;DHT22;4807;48.024;11.726;2023-01-29T17:20:41;-0.60;99.90
9537;DHT22;4807;48.024;11.726;2023-01-29T17:23:49;-0.50;99.90
9537;DHT22;4807;48.024;11.726;2023-01-29T17:26:59;-0.60;99.90
9537;DHT22;4807;48.024;11.726;2023-01-29T17:30:13;-0.50;99.90
9537;DHT22;4807;48.024;11.726;2023-01-29T17:33:23;-0.60;99.90
9537;DHT22;4807;48.024;11.726;2023-01-29T17:36:34;-0.50;99.90
9537;DHT22;4807;48.024;11.726;2023-01-29T17:39:48;-0.50;99.90
9537;DHT22;4807;48.024;11.726;2023-01-29T17:42:58;-0.50;99.90
9537;DHT22;4807;48.024;11.726;2023-01-29T17:46:10;-0.50;99.90
9537;DHT22;4807;48.024;11.726;2023-01-29T17:49:25;-0.50;99.90
9537;DHT22;4807;48.024;11.726;2023-01-29T17:52:36;-0.60;99.90
9537;DHT22;4807;48.024;11.726;2023-01-29T17:55:45;-0.60;99.90
9537;DHT22;4807;48.024;11.726;2023-01-29T17:58:54;-0.60;99.90
9537;DHT22;4807;48.024;11.726;2023-01-29T18:02:02;-0.60;99.90
9537;DHT22;4807;48.024;11.726;2023-01-29T18:05:11;-0.60;99.90
9537;DHT22;4807;48.024;11.726;2023-01-29T18:08:27;-0.70;99.90
9537;DHT22;4807;48.024;11.726;2023-01-29T18:11:37;-0.60;99.90
9537;DHT22;4807;48.024;11.726;2023-01-29T18:14:45;-0.60;99.90
9537;DHT22;4807;48.024;11.726;2023-01-29T18:17:54;-0.60;99.90
9537;DHT22;4807;48.024;11.726;2023-01-29T18:21:02;-0.60;99.90
9537;DHT22;4807;48.024;11.726;2023-01-29T18:24:12;-0.60;99.90
9537;DHT22;4807;48.024;11.726;2023-01-29T18:27:20;-0.60;99.90
9537;DHT22;4807;48.024;11.726;2023-01-29T18:30:29;-0.70;99.90
9537;DHT22;4807;48.024;11.726;2023-01-29T18:33:38;-0.60;99.90
9537;DHT22;4807;48.024;11.726;2023-01-29T18:36:47;-0.70;99.90
9537;DHT22;4807;48.024;11.726;2023-01-29T18:39:57;-0.60;99.90
9537;DHT22;4807;48.024;11.726;2023-01-29T18:43:06;-0.70;99.90
9537;DHT22;4807;48.024;11.726;2023-01-29T18:46:14;-0.60;99.90
9537;DHT22;4807;48.024;11.726;2023-01-29T18:49:22;-0.70;99.90
9537;DHT22;4807;48.024;11.726;2023-01-29T18:52:31;-1.20;99.90
9537;DHT22;4807;48.024;11.726;2023-01-29T18:55:41;-1.00;99.90
9537;DHT22;4807;48.024;11.726;2023-01-29T18:58:53;-1.20;99.90
9537;DHT22;4807;48.024;11.726;2023-01-29T19:02:01;-1.30;99.90
9537;DHT22;4807;48.024;11.726;2023-01-29T19:05:10;-1.30;99.90
9537;DHT22;4807;48.024;11.726;2023-01-29T19:08:19;-1.40;99.90
9537;DHT22;4807;48.024;11.726;2023-01-29T19:11:29;-1.50;99.90
9537;DHT22;4807;48.024;11.726;2023-01-29T19:14:37;0.20;99.90
9537;DHT22;4807;48.024;11.726;2023-01-29T19:17:46;-2.00;99.90
9537;DHT22;4807;48.024;11.726;2023-01-29T19:20:54;-2.10;99.90
9537;DHT22;4807;48.024;11.726;2023-01-29T19:24:04;-2.20;99.90
9537;DHT22;4807;48.024;11.726;2023-01-29T19:27:17;-2.30;99.90
9537;DHT22;4807;48.024;11.726;2023-01-29T19:30:25;-2.30;99.90
9537;DHT22;4807;48.024;11.726;2023-01-29T19:33:34;-2.40;99.90
9537;DHT22;4807;48.024;11.726;2023-01-29T19:36:42;-2.50;99.90
9537;DHT22;4807;48.024;11.726;2023-01-29T19:39:50;-2.60;99.90
9537;DHT22;4807;48.024;11.726;2023-01-29T19:43:03;-2.60;99.90
9537;DHT22;4807;48.024;11.726;2023-01-29T19:46:11;-2.70;99.90
9537;DHT22;4807;48.024;11.726;2023-01-29T19:49:19;-2.70;99.90
9537;DHT22;4807;48.024;11.726;2023-01-29T19:52:28;-2.80;99.90
9537;DHT22;4807;48.024;11.726;2023-01-29T19:55:59;-2.80;99.90
9537;DHT22;4807;48.024;11.726;2023-01-29T19:59:11;-2.80;99.90
9537;DHT22;4807;48.024;11.726;2023-01-29T20:02:19;-2.80;99.90
9537;DHT22;4807;48.024;11.726;2023-01-29T20:05:28;-2.90;99.90
9537;DHT22;4807;48.024;11.726;2023-01-29T20:08:36;-2.90;99.90
9537;DHT22;4807;48.024;11.726;2023-01-29T20:11:45;-3.00;99.90
9537;DHT22;4807;48.024;11.726;2023-01-29T20:14:57;-3.00;99.90
9537;DHT22;4807;48.024;11.726;2023-01-29T20:18:05;-3.00;99.90
9537;DHT22;4807;48.024;11.726;2023-01-29T20:21:19;-3.10;99.90
9537;DHT22;4807;48.024;11.726;2023-01-29T20:24:29;-3.10;99.90
9537;DHT22;4807;48.024;11.726;2023-01-29T20:27:37;-3.20;99.90
9537;DHT22;4807;48.024;11.726;2023-01-29T20:30:47;-3.20;99.90
9537;DHT22;4807;48.024;11.726;2023-01-29T20:33:56;-3.20;99.90
9537;DHT22;4807;48.024;11.726;2023-01-29T20:37:04;-3.20;99.90
9537;DHT22;4807;48.024;11.726;2023-01-29T20:40:12;-3.20;99.90
9537;DHT22;4807;48.024;11.726;2023-01-29T20:43:22;-3.20;99.90
9537;DHT22;4807;48.024;11.726;2023-01-29T20:46:31;-3.20;99.90
9537;DHT22;4807;48.024;11.726;2023-01-29T20:49:40;-3.20;99.90
9537;DHT22;4807;48.024;11.726;2023-01-29T20:52:49;-3.30;99.90
9537;DHT22;4807;48.024;11.726;2023-01-29T20:55:59;-3.30;99.90
9537;DHT22;4807;48.024;11.726;2023-01-29T20:59:10;-3.40;99.90
9537;DHT22;4807;48.024;11.726;2023-01-29T21:02:20;-3.50;99.90
9537;DHT22;4807;48.024;11.726;2023-01-29T21:05:28;-3.50;99.90
9537;DHT22;4807;48.024;11.726;2023-01-29T21:08:37;-3.60;99.90
9537;DHT22;4807;48.024;11.726;2023-01-29T21:11:46;-3.60;99.90
9537;DHT22;4807;48.024;11.726;2023-01-29T21:14:54;-3.60;99.90
9537;DHT22;4807;48.024;11.726;2023-01-29T21:18:06;-3.60;99.90
9537;DHT22;4807;48.024;11.726;2023-01-29T21:21:14;-3.50;99.90
9537;DHT22;4807;48.024;11.726;2023-01-29T21:24:22;-3.60;99.90
9537;DHT22;4807;48.024;11.726;2023-01-29T21:27:31;-3.70;99.90
9537;DHT22;4807;48.024;11.726;2023-01-29T21:30:39;-3.80;99.90
9537;DHT22;4807;48.024;11.726;2023-01-29T21:33:49;-3.80;99.90
9537;DHT22;4807;48.024;11.726;2023-01-29T21:36:58;-3.90;99.90
9537;DHT22;4807;48.024;11.726;2023-01-29T21:40:08;-3.80;99.90
9537;DHT22;4807;48.024;11.726;2023-01-29T21:43:17;-3.80;99.90
9537;DHT22;4807;48.024;11.726;2023-01-29T21:46:25;-3.80;99.90
9537;DHT22;4807;48.024;11.726;2023-01-29T21:49:35;-3.90;99.90
9537;DHT22;4807;48.024;11.726;2023-01-29T21:52:45;-3.90;99.90
9537;DHT22;4807;48.024;11.726;2023-01-29T21:55:58;-3.90;99.90
9537;DHT22;4807;48.024;11.726;2023-01-29T21:59:07;-3.80;99.90
9537;DHT22;4807;48.024;11.726;2023-01-29T22:02:17;-3.70;99.90
9537;DHT22;4807;48.024;11.726;2023-01-29T22:05:27;-3.50;99.90
9537;DHT22;4807;48.024;11.726;2023-01-29T22:08:36;-3.70;99.90
9537;DHT22;4807;48.024;11.726;2023-01-29T22:11:45;-3.90;99.90
9537;DHT22;4807;48.024;11.726;2023-01-29T22:14:53;-4.20;99.90
9537;DHT22;4807;48.024;11.726;2023-01-29T22:18:01;-4.30;99.90
9537;DHT22;4807;48.024;11.726;2023-01-29T22:21:11;-4.30;99.90
9537;DHT22;4807;48.024;11.726;2023-01-29T22:24:19;-4.10;99.90
9537;DHT22;4807;48.024;11.726;2023-01-29T22:27:29;-4.00;99.90
9537;DHT22;4807;48.024;11.726;2023-01-29T22:30:38;-4.10;99.90
9537;DHT22;4807;48.024;11.726;2023-01-29T22:33:46;-4.00;99.90
9537;DHT22;4807;48.024;11.726;2023-01-29T22:36:58;-4.10;99.90
9537;DHT22;4807;48.024;11.726;2023-01-29T22:40:08;-4.20;99.90
9537;DHT22;4807;48.024;11.726;2023-01-29T22:43:17;-4.30;99.90
9537;DHT22;4807;48.024;11.726;2023-01-29T22:46:26;-4.40;99.90
9537;DHT22;4807;48.024;11.726;2023-01-29T22:49:34;-4.40;99.90
9537;DHT22;4807;48.024;11.726;2023-01-29T22:52:44;-4.30;99.90
9537;DHT22;4807;48.024;11.726;2023-01-29T22:55:59;-4.30;99.90
9537;DHT22;4807;48.024;11.726;2023-01-29T22:59:09;-4.30;99.90
9537;DHT22;4807;48.024;11.726;2023-01-29T23:02:17;-4.30;99.90
9537;DHT22;4807;48.024;11.726;2023-01-29T23:05:25;-4.30;99.90
9537;DHT22;4807;48.024;11.726;2023-01-29T23:08:35;-4.20;99.90
9537;DHT22;4807;48.024;11.726;2023-01-29T23:11:44;-4.30;99.90
9537;DHT22;4807;48.024;11.726;2023-01-29T23:14:52;-4.30;99.90
9537;DHT22;4807;48.024;11.726;2023-01-29T23:18:01;-4.40;99.90
9537;DHT22;4807;48.024;11.726;2023-01-29T23:21:10;-4.40;99.90
9537;DHT22;4807;48.024;11.726;2023-01-29T23:24:24;-4.50;99.90
9537;DHT22;4807;48.024;11.726;2023-01-29T23:27:32;-4.60;99.90
9537;DHT22;4807;48.024;11.726;2023-01-29T23:30:40;-4.60;99.90
9537;DHT22;4807;48.024;11.726;2023-01-29T23:33:48;-4.60;99.90
9537;DHT22;4807;48.024;11.726;2023-01-29T23:36:56;-4.60;99.90
9537;DHT22;4807;48.024;11.726;2023-01-29T23:40:08;-4.60;99.90
9537;DHT22;4807;48.024;11.726;2023-01-29T23:43:18;-4.50;99.90
9537;DHT22;4807;48.024;11.726;2023-01-29T23:46:27;-4.50;99.90
9537;DHT22;4807;48.024;11.726;2023-01-29T23:49:36;-4.40;99.90
9537;DHT22;4807;48.024;11.726;2023-01-29T23:52:44;-4.40;99.90
9537;DHT22;4807;48.024;11.726;2023-01-29T23:55:58;-4.50;99.90
9537;DHT22;4807;48.024;11.726;2023-01-29T23:59:07;-4.60;99.90
